createdAt,value
2023-05-17T00:01:12.000Z,1004.9
2023-05-17T00:02:28.548Z,1004.9
2023-05-17T00:03:44.683Z,1004.9
2023-05-17T00:05:00.810Z,1005
2023-05-17T00:06:16.936Z,1005
2023-05-17T00:07:33.076Z,1004.9
2023-05-17T00:08:49.215Z,1005
2023-05-17T00:10:05.353Z,1005
2023-05-17T00:11:21.478Z,1005
2023-05-17T00:12:37.624Z,1005
2023-05-17T00:13:53.758Z,1005
2023-05-17T00:15:09.906Z,1005
2023-05-17T00:16:26.102Z,1005
2023-05-17T00:17:41.324Z,1005
2023-05-17T00:18:56.533Z,1005
2023-05-17T00:20:12.672Z,1005
2023-05-17T00:21:28.812Z,1005
2023-05-17T00:22:44.939Z,1005
2023-05-17T00:24:01.070Z,1005.1
2023-05-17T00:25:17.225Z,1005.1
2023-05-17T00:26:33.345Z,1005.1
2023-05-17T00:27:49.479Z,1005.1
2023-05-17T00:29:05.609Z,1005
2023-05-17T00:30:21.748Z,1005
2023-05-17T00:31:37.895Z,1005
2023-05-17T00:32:54.028Z,1005
2023-05-17T00:34:10.173Z,1005
2023-05-17T00:35:26.291Z,1005
2023-05-17T00:36:42.434Z,1005
2023-05-17T00:37:58.573Z,1005.1
2023-05-17T00:39:14.704Z,1005
2023-05-17T00:40:30.841Z,1005.1
2023-05-17T00:41:46.969Z,1005
2023-05-17T00:43:03.113Z,1005
2023-05-17T00:44:19.247Z,1005.1
2023-05-17T00:45:35.383Z,1005
2023-05-17T00:46:51.530Z,1005.1
2023-05-17T00:48:07.659Z,1005.1
2023-05-17T00:49:23.796Z,1005
2023-05-17T00:50:39.988Z,1005
2023-05-17T00:51:55.240Z,1005
2023-05-17T00:53:10.438Z,1005
2023-05-17T00:54:26.586Z,1005.1
2023-05-17T00:55:42.709Z,1005.1
2023-05-17T00:56:58.848Z,1005.1
2023-05-17T00:58:14.982Z,1005
2023-05-17T00:59:31.107Z,1005
2023-05-17T01:00:47.261Z,1005
2023-05-17T01:02:03.402Z,1005
2023-05-17T01:03:19.539Z,1005
2023-05-17T01:04:35.671Z,1005
2023-05-17T01:05:51.786Z,1005
2023-05-17T01:07:07.953Z,1005
2023-05-17T01:08:24.081Z,1004.9
2023-05-17T01:09:40.204Z,1005
2023-05-17T01:10:56.339Z,1005
2023-05-17T01:12:12.469Z,1004.9
2023-05-17T01:13:28.622Z,1005
2023-05-17T01:14:44.759Z,1004.9
2023-05-17T01:16:00.897Z,1004.9
2023-05-17T01:17:17.022Z,1005
2023-05-17T01:18:33.159Z,1005
2023-05-17T01:19:49.296Z,1005
2023-05-17T01:21:05.442Z,1005
2023-05-17T01:22:21.575Z,1005
2023-05-17T01:23:37.697Z,1005
2023-05-17T01:24:53.899Z,1005
2023-05-17T01:26:09.135Z,1005
2023-05-17T01:27:25.315Z,1005
2023-05-17T01:28:41.521Z,1005.1
2023-05-17T01:29:56.730Z,1005
2023-05-17T01:31:12.860Z,1005.1
2023-05-17T01:32:28.985Z,1005.1
2023-05-17T01:33:45.130Z,1005.1
2023-05-17T01:35:01.264Z,1005.1
2023-05-17T01:36:17.407Z,1005.1
2023-05-17T01:37:33.000Z,1005.1
2023-05-17T01:38:49.662Z,1005.1
2023-05-17T01:40:05.801Z,1005.1
2023-05-17T01:41:21.926Z,1005.1
2023-05-17T01:42:38.085Z,1005.1
2023-05-17T01:43:54.210Z,1005.1
2023-05-17T01:45:10.339Z,1005.2
2023-05-17T01:46:26.483Z,1005.2
2023-05-17T01:47:42.624Z,1005.2
2023-05-17T01:48:58.768Z,1005.2
2023-05-17T01:50:14.891Z,1005.1
2023-05-17T01:51:31.039Z,1005.2
2023-05-17T01:52:47.152Z,1005.2
2023-05-17T01:54:03.304Z,1005.2
2023-05-17T01:55:19.446Z,1005.2
2023-05-17T01:56:35.585Z,1005.2
2023-05-17T01:57:51.705Z,1005.2
2023-05-17T01:59:07.846Z,1005.2
2023-05-17T02:00:23.975Z,1005.2
2023-05-17T02:01:40.183Z,1005.3
2023-05-17T02:02:55.395Z,1005.2
2023-05-17T02:04:10.536Z,1005.3
2023-05-17T02:05:26.693Z,1005.3
2023-05-17T02:06:42.813Z,1005.2
2023-05-17T02:07:58.944Z,1005.3
2023-05-17T02:09:15.080Z,1005.3
2023-05-17T02:10:31.223Z,1005.3
2023-05-17T02:13:03.501Z,1005.3
2023-05-17T02:14:19.633Z,1005.3
2023-05-17T02:15:35.769Z,1005.3
2023-05-17T02:16:51.895Z,1005.3
2023-05-17T02:18:08.041Z,1005.3
2023-05-17T02:19:24.184Z,1005.3
2023-05-17T02:20:40.310Z,1005.3
2023-05-17T02:21:56.438Z,1005.3
2023-05-17T02:23:12.589Z,1005.3
2023-05-17T02:24:28.726Z,1005.3
2023-05-17T02:25:44.866Z,1005.3
2023-05-17T02:27:00.996Z,1005.3
2023-05-17T02:28:17.126Z,1005.3
2023-05-17T02:29:33.258Z,1005.3
2023-05-17T02:30:49.407Z,1005.3
2023-05-17T02:32:05.540Z,1005.4
2023-05-17T02:33:21.682Z,1005.4
2023-05-17T02:34:37.797Z,1005.4
2023-05-17T02:35:53.932Z,1005.4
2023-05-17T02:37:10.080Z,1005.4
2023-05-17T02:38:26.216Z,1005.4
2023-05-17T02:39:42.350Z,1005.4
2023-05-17T02:40:58.488Z,1005.5
2023-05-17T02:42:14.615Z,1005.5
2023-05-17T02:43:30.764Z,1005.5
2023-05-17T02:44:46.896Z,1005.5
2023-05-17T02:46:03.036Z,1005.5
2023-05-17T02:47:19.165Z,1005.5
2023-05-17T02:48:35.306Z,1005.5
2023-05-17T02:49:51.451Z,1005.5
2023-05-17T02:51:07.737Z,1005.5
2023-05-17T02:52:23.854Z,1005.5
2023-05-17T02:53:39.991Z,1005.5
2023-05-17T02:54:56.125Z,1005.5
2023-05-17T02:56:12.281Z,1005.5
2023-05-17T02:57:28.417Z,1005.5
2023-05-17T02:58:44.536Z,1005.5
2023-05-17T03:00:00.680Z,1005.5
2023-05-17T03:01:16.806Z,1005.5
2023-05-17T03:02:32.950Z,1005.6
2023-05-17T03:03:49.089Z,1005.6
2023-05-17T03:05:05.223Z,1005.5
2023-05-17T03:06:21.351Z,1005.6
2023-05-17T03:07:37.493Z,1005.6
2023-05-17T03:08:53.637Z,1005.6
2023-05-17T03:10:09.772Z,1005.6
2023-05-17T03:11:25.904Z,1005.7
2023-05-17T03:12:42.029Z,1005.7
2023-05-17T03:13:58.173Z,1005.7
2023-05-17T03:15:14.315Z,1005.7
2023-05-17T03:16:30.437Z,1005.7
2023-05-17T03:17:46.571Z,1005.7
2023-05-17T03:19:02.714Z,1005.7
2023-05-17T03:20:19.002Z,1005.8
2023-05-17T03:21:35.144Z,1005.8
2023-05-17T03:22:51.262Z,1005.8
2023-05-17T03:24:07.403Z,1005.8
2023-05-17T03:25:23.530Z,1005.8
2023-05-17T03:26:39.667Z,1005.9
2023-05-17T03:27:55.815Z,1005.9
2023-05-17T03:29:11.957Z,1005.9
2023-05-17T03:30:28.079Z,1005.9
2023-05-17T03:31:44.213Z,1006
2023-05-17T03:33:00.350Z,1005.9
2023-05-17T03:34:16.496Z,1005.9
2023-05-17T03:35:32.624Z,1006
2023-05-17T03:36:48.770Z,1005.9
2023-05-17T03:38:04.887Z,1006
2023-05-17T03:39:21.029Z,1006
2023-05-17T03:40:37.168Z,1006
2023-05-17T03:41:53.301Z,1006
2023-05-17T03:43:09.434Z,1006
2023-05-17T03:44:25.577Z,1006.1
2023-05-17T03:45:41.705Z,1006.1
2023-05-17T03:46:57.854Z,1006
2023-05-17T03:48:13.986Z,1006
2023-05-17T03:49:30.120Z,1006
2023-05-17T03:50:46.254Z,1006
2023-05-17T03:52:02.441Z,1006
2023-05-17T03:53:17.706Z,1006
2023-05-17T03:54:32.915Z,1006
2023-05-17T03:55:49.036Z,1006
2023-05-17T03:57:05.195Z,1006.1
2023-05-17T03:58:21.323Z,1006.1
2023-05-17T03:59:37.462Z,1006.1
2023-05-17T04:00:53.587Z,1006.1
2023-05-17T04:02:09.731Z,1006.1
2023-05-17T04:03:25.879Z,1006.2
2023-05-17T04:04:42.004Z,1006.2
2023-05-17T04:05:58.143Z,1006.2
2023-05-17T04:07:14.272Z,1006.3
2023-05-17T04:08:30.412Z,1006.3
2023-05-17T04:09:46.547Z,1006.3
2023-05-17T04:11:02.679Z,1006.3
2023-05-17T04:12:18.813Z,1006.3
2023-05-17T04:13:34.945Z,1006.4
2023-05-17T04:14:51.084Z,1006.4
2023-05-17T04:16:07.240Z,1006.3
2023-05-17T04:17:23.364Z,1006.4
2023-05-17T04:18:39.500Z,1006.4
2023-05-17T04:19:55.643Z,1006.4
2023-05-17T04:21:11.757Z,1006.4
2023-05-17T04:22:27.920Z,1006.4
2023-05-17T04:23:44.051Z,1006.5
2023-05-17T04:25:00.183Z,1006.4
2023-05-17T04:26:16.365Z,1006.4
2023-05-17T04:27:31.609Z,1006.4
2023-05-17T04:28:46.836Z,1006.4
2023-05-17T04:30:01.975Z,1006.4
2023-05-17T04:31:18.121Z,1006.4
2023-05-17T04:32:34.252Z,1006.5
2023-05-17T04:33:50.375Z,1006.5
2023-05-17T04:35:06.506Z,1006.5
2023-05-17T04:36:22.645Z,1006.5
2023-05-17T04:37:38.787Z,1006.5
2023-05-17T04:38:54.933Z,1006.5
2023-05-17T04:40:11.063Z,1006.6
2023-05-17T04:41:27.197Z,1006.6
2023-05-17T04:42:43.328Z,1006.6
2023-05-17T04:43:59.485Z,1006.6
2023-05-17T04:45:15.613Z,1006.6
2023-05-17T04:46:31.736Z,1006.6
2023-05-17T04:47:47.881Z,1006.6
2023-05-17T04:49:04.003Z,1006.6
2023-05-17T04:50:20.161Z,1006.6
2023-05-17T04:51:36.284Z,1006.7
2023-05-17T04:52:52.417Z,1006.7
2023-05-17T04:54:08.559Z,1006.7
2023-05-17T04:55:24.691Z,1006.7
2023-05-17T04:56:40.837Z,1006.7
2023-05-17T04:57:56.970Z,1006.8
2023-05-17T04:59:13.113Z,1006.8
2023-05-17T05:00:29.235Z,1006.8
2023-05-17T05:01:45.373Z,1006.8
2023-05-17T05:03:01.523Z,1006.8
2023-05-17T05:04:17.658Z,1006.8
2023-05-17T05:05:33.786Z,1006.9
2023-05-17T05:06:49.913Z,1006.9
2023-05-17T05:08:06.048Z,1006.9
2023-05-17T05:09:22.203Z,1006.9
2023-05-17T05:10:38.332Z,1006.9
2023-05-17T05:11:54.470Z,1006.9
2023-05-17T05:13:10.596Z,1006.9
2023-05-17T05:14:26.728Z,1007
2023-05-17T05:15:42.883Z,1006.9
2023-05-17T05:16:59.060Z,1006.9
2023-05-17T05:18:14.313Z,1007
2023-05-17T05:19:29.522Z,1007
2023-05-17T05:20:45.656Z,1007
2023-05-17T05:22:01.786Z,1007
2023-05-17T05:23:17.921Z,1007.1
2023-05-17T05:24:34.041Z,1007.1
2023-05-17T05:25:50.186Z,1007.1
2023-05-17T05:27:06.328Z,1007.1
2023-05-17T05:28:22.450Z,1007.1
2023-05-17T05:29:38.598Z,1007.1
2023-05-17T05:30:54.733Z,1007.1
2023-05-17T05:32:10.874Z,1007.1
2023-05-17T05:33:27.009Z,1007.2
2023-05-17T05:34:43.148Z,1007.1
2023-05-17T05:35:59.262Z,1007.2
2023-05-17T05:37:15.403Z,1007
2023-05-17T05:38:31.559Z,1007.1
2023-05-17T05:39:47.677Z,1007.1
2023-05-17T05:41:03.810Z,1007.2
2023-05-17T05:42:19.945Z,1007.2
2023-05-17T05:43:36.086Z,1007.2
2023-05-17T05:44:52.242Z,1007.2
2023-05-17T05:46:08.367Z,1007.2
2023-05-17T05:47:24.508Z,1007.2
2023-05-17T05:48:40.633Z,1007.3
2023-05-17T05:49:56.774Z,1007.3
2023-05-17T05:51:12.979Z,1007.3
2023-05-17T05:52:28.218Z,1007.3
2023-05-17T05:53:44.412Z,1007.4
2023-05-17T05:54:59.606Z,1007.4
2023-05-17T05:56:15.747Z,1007.4
2023-05-17T05:57:31.871Z,1007.5
2023-05-17T05:58:48.000Z,1007.5
2023-05-17T06:00:04.149Z,1007.5
2023-05-17T06:01:20.286Z,1007.5
2023-05-17T06:02:36.418Z,1007.5
2023-05-17T06:03:52.555Z,1007.5
2023-05-17T06:05:08.683Z,1007.5
2023-05-17T06:06:24.828Z,1007.6
2023-05-17T06:07:40.973Z,1007.6
2023-05-17T06:08:57.105Z,1007.6
2023-05-17T06:10:13.232Z,1007.6
2023-05-17T06:11:29.368Z,1007.6
2023-05-17T06:12:45.496Z,1007.6
2023-05-17T06:14:01.662Z,1007.6
2023-05-17T06:15:17.794Z,1007.7
2023-05-17T06:16:33.926Z,1007.6
2023-05-17T06:17:50.061Z,1007.7
2023-05-17T06:19:06.182Z,1007.7
2023-05-17T06:20:22.340Z,1007.7
2023-05-17T06:21:38.617Z,1007.7
2023-05-17T06:22:54.754Z,1007.7
2023-05-17T06:24:10.878Z,1007.7
2023-05-17T06:25:27.022Z,1007.8
2023-05-17T06:26:43.159Z,1007.8
2023-05-17T06:27:59.304Z,1007.8
2023-05-17T06:29:15.423Z,1007.8
2023-05-17T06:30:31.567Z,1007.8
2023-05-17T06:31:47.704Z,1007.9
2023-05-17T06:33:03.838Z,1007.9
2023-05-17T06:34:19.971Z,1007.9
2023-05-17T06:35:36.109Z,1007.9
2023-05-17T06:36:52.239Z,1008
2023-05-17T06:38:08.388Z,1008
2023-05-17T06:39:24.529Z,1008
2023-05-17T06:40:40.660Z,1007.9
2023-05-17T06:41:56.793Z,1007.9
2023-05-17T06:43:12.923Z,1007.9
2023-05-17T06:44:29.058Z,1007.9
2023-05-17T06:45:45.216Z,1007.9
2023-05-17T06:47:01.339Z,1008
2023-05-17T06:48:17.467Z,1008
2023-05-17T06:49:33.609Z,1008
2023-05-17T06:50:49.734Z,1008
2023-05-17T06:52:05.884Z,1008.1
2023-05-17T06:53:22.080Z,1008.1
2023-05-17T06:54:37.295Z,1008.1
2023-05-17T06:55:53.420Z,1008.2
2023-05-17T06:57:09.569Z,1008.1
2023-05-17T06:58:25.698Z,1008.2
2023-05-17T06:59:41.829Z,1008.2
2023-05-17T07:00:57.969Z,1008.2
2023-05-17T07:02:14.102Z,1008.2
2023-05-17T07:03:30.252Z,1008.2
2023-05-17T07:04:46.376Z,1008.2
2023-05-17T07:06:02.515Z,1008.2
2023-05-17T07:07:18.651Z,1008.2
2023-05-17T07:08:34.782Z,1008.2
2023-05-17T07:09:50.935Z,1008.2
2023-05-17T07:11:07.069Z,1008.3
2023-05-17T07:12:23.196Z,1008.3
2023-05-17T07:13:39.339Z,1008.3
2023-05-17T07:14:55.461Z,1008.3
2023-05-17T07:16:11.618Z,1008.3
2023-05-17T07:17:27.737Z,1008.3
2023-05-17T07:18:43.889Z,1008.4
2023-05-17T07:20:00.007Z,1008.3
2023-05-17T07:21:16.142Z,1008.3
2023-05-17T07:22:32.297Z,1008.3
2023-05-17T07:23:48.421Z,1008.3
2023-05-17T07:25:04.553Z,1008.3
2023-05-17T07:26:20.744Z,1008.3
2023-05-17T07:27:35.969Z,1008.3
2023-05-17T07:28:52.103Z,1008.3
2023-05-17T07:30:08.227Z,1008.4
2023-05-17T07:31:24.357Z,1008.4
2023-05-17T07:32:40.496Z,1008.4
2023-05-17T07:33:56.635Z,1008.4
2023-05-17T07:35:12.781Z,1008.4
2023-05-17T07:36:28.910Z,1008.4
2023-05-17T07:37:45.047Z,1008.5
2023-05-17T07:39:01.172Z,1008.4
2023-05-17T07:40:17.329Z,1008.4
2023-05-17T07:41:33.461Z,1008.4
2023-05-17T07:42:49.585Z,1008.5
2023-05-17T07:44:05.725Z,1008.5
2023-05-17T07:45:21.846Z,1008.5
2023-05-17T07:46:38.010Z,1008.5
2023-05-17T07:47:54.132Z,1008.6
2023-05-17T07:49:10.276Z,1008.6
2023-05-17T07:50:26.406Z,1008.6
2023-05-17T07:51:42.544Z,1008.6
2023-05-17T07:52:58.691Z,1008.5
2023-05-17T07:54:14.815Z,1008.6
2023-05-17T07:55:30.950Z,1008.6
2023-05-17T07:56:47.087Z,1008.6
2023-05-17T07:58:03.225Z,1008.7
2023-05-17T07:59:19.420Z,1008.7
2023-05-17T08:00:34.658Z,1008.8
2023-05-17T08:01:49.868Z,1008.8
2023-05-17T08:03:06.019Z,1008.8
2023-05-17T08:04:22.153Z,1008.8
2023-05-17T08:05:38.288Z,1008.8
2023-05-17T08:06:54.423Z,1008.8
2023-05-17T08:08:10.560Z,1008.8
2023-05-17T08:09:26.692Z,1008.8
2023-05-17T08:11:58.959Z,1008.8
2023-05-17T08:13:15.095Z,1008.7
2023-05-17T08:14:31.233Z,1008.7
2023-05-17T08:15:47.378Z,1008.8
2023-05-17T08:17:03.517Z,1008.8
2023-05-17T08:18:19.650Z,1008.8
2023-05-17T08:19:35.790Z,1008.8
2023-05-17T08:20:51.920Z,1008.8
2023-05-17T08:22:08.062Z,1008.8
2023-05-17T08:23:24.198Z,1008.8
2023-05-17T08:24:40.329Z,1008.8
2023-05-17T08:25:56.459Z,1008.8
2023-05-17T08:27:12.587Z,1008.8
2023-05-17T08:28:28.746Z,1008.7
2023-05-17T08:29:44.876Z,1008.7
2023-05-17T08:31:01.015Z,1008.7
2023-05-17T08:32:17.141Z,1008.8
2023-05-17T08:33:33.000Z,1008.7
2023-05-17T08:34:48.596Z,1008.7
2023-05-17T08:36:03.808Z,1008.8
2023-05-17T08:37:19.944Z,1008.8
2023-05-17T08:38:36.076Z,1008.7
2023-05-17T08:39:52.221Z,1008.7
2023-05-17T08:41:08.347Z,1008.7
2023-05-17T08:42:24.492Z,1008.8
2023-05-17T08:43:40.612Z,1008.8
2023-05-17T08:44:56.761Z,1008.8
2023-05-17T08:46:12.893Z,1008.8
2023-05-17T08:47:29.039Z,1008.8
2023-05-17T08:48:45.168Z,1008.8
2023-05-17T08:50:01.306Z,1008.8
2023-05-17T08:51:17.454Z,1008.8
2023-05-17T08:52:33.577Z,1008.8
2023-05-17T08:53:49.714Z,1008.8
2023-05-17T08:55:05.844Z,1008.9
2023-05-17T08:56:21.977Z,1008.9
2023-05-17T08:57:38.138Z,1008.9
2023-05-17T08:58:54.255Z,1008.9
2023-05-17T09:00:10.406Z,1008.9
2023-05-17T09:01:26.534Z,1008.8
2023-05-17T09:02:42.668Z,1008.9
2023-05-17T09:03:58.818Z,1008.9
2023-05-17T09:05:14.942Z,1008.9
2023-05-17T09:06:31.076Z,1008.9
2023-05-17T09:07:47.263Z,1008.9
2023-05-17T09:09:02.518Z,1009
2023-05-17T09:10:18.707Z,1009
2023-05-17T09:11:33.913Z,1008.9
2023-05-17T09:12:50.035Z,1009
2023-05-17T09:14:06.190Z,1009
2023-05-17T09:15:22.324Z,1009
2023-05-17T09:16:38.463Z,1009
2023-05-17T09:17:54.588Z,1008.9
2023-05-17T09:19:10.732Z,1008.8
2023-05-17T09:20:26.868Z,1008.9
2023-05-17T09:21:42.998Z,1008.9
2023-05-17T09:22:59.131Z,1008.8
2023-05-17T09:24:15.268Z,1008.9
2023-05-17T09:25:31.401Z,1008.7
2023-05-17T09:26:47.546Z,1008.8
2023-05-17T09:28:03.691Z,1008.8
2023-05-17T09:29:19.818Z,1008.6
2023-05-17T09:30:35.960Z,1008.7
2023-05-17T09:31:52.086Z,1008.7
2023-05-17T09:33:08.245Z,1008.6
2023-05-17T09:34:24.373Z,1008.6
2023-05-17T09:35:40.512Z,1008.6
2023-05-17T09:36:56.642Z,1008.6
2023-05-17T09:38:12.763Z,1008.7
2023-05-17T09:39:28.922Z,1008.7
2023-05-17T09:42:01.189Z,1008.7
2023-05-17T09:43:17.379Z,1008.7
2023-05-17T09:44:32.615Z,1008.6
2023-05-17T09:45:47.823Z,1008.6
2023-05-17T09:47:02.975Z,1008.8
2023-05-17T09:48:19.130Z,1008.8
2023-05-17T09:49:35.256Z,1008.8
2023-05-17T09:50:51.393Z,1008.7
2023-05-17T09:52:07.537Z,1008.7
2023-05-17T09:53:23.671Z,1008.7
2023-05-17T09:54:39.819Z,1008.8
2023-05-17T09:55:55.937Z,1008.7
2023-05-17T09:57:12.088Z,1008.7
2023-05-17T09:58:28.208Z,1008.6
2023-05-17T09:59:44.348Z,1008.6
2023-05-17T10:01:00.501Z,1008.5
2023-05-17T10:02:16.633Z,1008.6
2023-05-17T10:03:32.764Z,1008.7
2023-05-17T10:04:48.893Z,1008.6
2023-05-17T10:06:05.028Z,1008.6
2023-05-17T10:07:21.181Z,1008.7
2023-05-17T10:08:37.314Z,1008.5
2023-05-17T10:09:53.448Z,1008.5
2023-05-17T10:11:09.587Z,1008.4
2023-05-17T10:12:25.721Z,1008.4
2023-05-17T10:13:41.868Z,1008.5
2023-05-17T10:16:14.136Z,1008.4
2023-05-17T10:17:30.261Z,1008.4
2023-05-17T10:18:46.400Z,1008.4
2023-05-17T10:20:02.560Z,1008.5
2023-05-17T10:21:18.691Z,1008.5
2023-05-17T10:22:34.813Z,1008.5
2023-05-17T10:23:50.964Z,1008.4
2023-05-17T10:25:07.096Z,1008.4
2023-05-17T10:26:23.234Z,1008.4
2023-05-17T10:27:39.372Z,1008.5
2023-05-17T10:28:55.503Z,1008.5
2023-05-17T10:30:11.638Z,1008.5
2023-05-17T10:31:27.775Z,1008.4
2023-05-17T10:32:43.922Z,1008.4
2023-05-17T10:34:00.114Z,1008.5
2023-05-17T10:35:15.354Z,1008.5
2023-05-17T10:36:30.567Z,1008.5
2023-05-17T10:37:46.709Z,1008.6
2023-05-17T10:39:02.833Z,1008.6
2023-05-17T10:40:18.979Z,1008.6
2023-05-17T10:41:35.107Z,1008.6
2023-05-17T10:42:51.245Z,1008.6
2023-05-17T10:44:07.396Z,1008.5
2023-05-17T10:45:23.511Z,1008.7
2023-05-17T10:46:39.653Z,1008.8
2023-05-17T10:47:55.792Z,1008.8
2023-05-17T10:49:11.928Z,1008.7
2023-05-17T10:50:28.061Z,1008.7
2023-05-17T10:51:44.208Z,1008.7
2023-05-17T10:53:00.348Z,1008.8
2023-05-17T10:54:16.466Z,1008.7
2023-05-17T10:55:32.614Z,1008.8
2023-05-17T10:56:48.755Z,1008.8
2023-05-17T10:58:04.899Z,1008.8
2023-05-17T10:59:21.025Z,1008.8
2023-05-17T11:00:37.151Z,1008.8
2023-05-17T11:01:53.308Z,1008.7
2023-05-17T11:03:09.434Z,1008.8
2023-05-17T11:04:25.584Z,1008.8
2023-05-17T11:05:41.717Z,1008.7
2023-05-17T11:06:57.851Z,1008.7
2023-05-17T11:08:14.050Z,1008.7
2023-05-17T11:09:29.296Z,1008.7
2023-05-17T11:10:44.500Z,1008.7
2023-05-17T11:12:00.653Z,1008.7
2023-05-17T11:13:16.775Z,1008.7
2023-05-17T11:14:32.908Z,1008.6
2023-05-17T11:15:49.051Z,1008.6
2023-05-17T11:17:05.177Z,1008.6
2023-05-17T11:18:21.334Z,1008.7
2023-05-17T11:19:37.474Z,1008.6
2023-05-17T11:20:53.599Z,1008.7
2023-05-17T11:22:09.736Z,1008.8
2023-05-17T11:23:25.872Z,1008.7
2023-05-17T11:24:42.015Z,1008.7
2023-05-17T11:25:58.150Z,1008.6
2023-05-17T11:27:14.296Z,1008.7
2023-05-17T11:28:30.426Z,1008.8
2023-05-17T11:29:46.550Z,1008.7
2023-05-17T11:31:02.705Z,1008.8
2023-05-17T11:32:18.844Z,1008.7
2023-05-17T11:33:34.982Z,1008.7
2023-05-17T11:34:51.114Z,1008.8
2023-05-17T11:36:07.234Z,1008.8
2023-05-17T11:37:23.384Z,1008.7
2023-05-17T11:38:39.515Z,1008.7
2023-05-17T11:39:55.668Z,1008.7
2023-05-17T11:41:11.789Z,1008.8
2023-05-17T11:42:27.984Z,1008.8
2023-05-17T11:43:43.223Z,1008.8
2023-05-17T11:44:59.413Z,1008.8
2023-05-17T11:46:14.619Z,1008.8
2023-05-17T11:47:30.770Z,1008.8
2023-05-17T11:48:46.904Z,1008.8
2023-05-17T11:50:03.035Z,1008.7
2023-05-17T11:51:19.170Z,1008.8
2023-05-17T11:52:35.302Z,1008.8
2023-05-17T11:53:51.453Z,1008.8
2023-05-17T11:55:07.584Z,1008.8
2023-05-17T11:56:23.717Z,1008.8
2023-05-17T11:57:39.857Z,1008.8
2023-05-17T11:58:55.993Z,1008.8
2023-05-17T12:00:12.134Z,1008.8
2023-05-17T12:01:28.275Z,1008.8
2023-05-17T12:02:44.406Z,1008.8
2023-05-17T12:04:00.535Z,1008.7
2023-05-17T12:05:16.675Z,1008.8
2023-05-17T12:06:32.817Z,1008.9
2023-05-17T12:07:48.939Z,1008.9
2023-05-17T12:09:05.090Z,1008.9
2023-05-17T12:10:21.215Z,1008.9
2023-05-17T12:11:37.355Z,1008.9
2023-05-17T12:12:53.505Z,1008.9
2023-05-17T12:14:09.628Z,1008.8
2023-05-17T12:15:25.759Z,1008.9
2023-05-17T12:16:41.893Z,1008.9
2023-05-17T12:17:58.092Z,1008.9
2023-05-17T12:19:13.336Z,1008.9
2023-05-17T12:20:28.538Z,1008.8
2023-05-17T12:21:44.676Z,1008.9
2023-05-17T12:23:00.813Z,1008.9
2023-05-17T12:24:16.960Z,1008.9
2023-05-17T12:25:33.093Z,1008.9
2023-05-17T12:26:49.224Z,1008.9
2023-05-17T12:28:05.342Z,1008.9
2023-05-17T12:29:21.491Z,1008.9
2023-05-17T12:30:37.642Z,1008.9
2023-05-17T12:31:53.759Z,1009
2023-05-17T12:33:09.890Z,1008.9
2023-05-17T12:34:26.032Z,1008.9
2023-05-17T12:35:42.187Z,1009
2023-05-17T12:36:58.320Z,1008.9
2023-05-17T12:38:14.437Z,1008.9
2023-05-17T12:39:30.586Z,1009
2023-05-17T12:40:46.708Z,1008.9
2023-05-17T12:42:02.857Z,1009
2023-05-17T12:43:18.999Z,1008.9
2023-05-17T12:44:35.131Z,1008.8
2023-05-17T12:45:51.261Z,1008.8
2023-05-17T12:47:07.396Z,1008.8
2023-05-17T12:48:23.544Z,1008.8
2023-05-17T12:49:39.686Z,1008.8
2023-05-17T12:50:55.806Z,1008.8
2023-05-17T12:52:12.003Z,1008.9
2023-05-17T12:53:27.258Z,1008.9
2023-05-17T12:54:42.471Z,1008.9
2023-05-17T12:55:57.618Z,1008.9
2023-05-17T12:57:13.759Z,1008.9
2023-05-17T12:58:29.907Z,1009
2023-05-17T12:59:46.029Z,1008.9
2023-05-17T13:01:02.179Z,1008.9
2023-05-17T13:02:18.304Z,1008.9
2023-05-17T13:03:34.452Z,1008.9
2023-05-17T13:04:50.576Z,1008.9
2023-05-17T13:06:06.713Z,1008.9
2023-05-17T13:07:22.843Z,1008.9
2023-05-17T13:08:38.979Z,1009
2023-05-17T13:09:55.139Z,1008.9
2023-05-17T13:11:11.268Z,1008.9
2023-05-17T13:12:27.393Z,1008.9
2023-05-17T13:13:43.542Z,1008.9
2023-05-17T13:14:59.661Z,1009
2023-05-17T13:16:15.822Z,1008.9
2023-05-17T13:17:31.954Z,1008.9
2023-05-17T13:18:48.086Z,1008.9
2023-05-17T13:20:04.213Z,1008.9
2023-05-17T13:21:20.339Z,1008.9
2023-05-17T13:22:36.506Z,1009
2023-05-17T13:23:52.624Z,1008.9
2023-05-17T13:25:08.770Z,1008.9
2023-05-17T13:26:24.887Z,1008.9
2023-05-17T13:27:41.027Z,1008.9
2023-05-17T13:28:57.175Z,1008.9
2023-05-17T13:30:13.309Z,1008.8
2023-05-17T13:31:29.445Z,1008.8
2023-05-17T13:32:45.587Z,1008.8
2023-05-17T13:34:01.707Z,1008.8
2023-05-17T13:35:17.849Z,1008.9
2023-05-17T13:36:34.000Z,1008.9
2023-05-17T13:37:50.128Z,1008.8
2023-05-17T13:39:06.267Z,1008.7
2023-05-17T13:40:22.397Z,1008.8
2023-05-17T13:41:38.533Z,1008.9
2023-05-17T13:42:54.734Z,1008.8
2023-05-17T13:44:09.966Z,1008.8
2023-05-17T13:45:25.170Z,1008.8
2023-05-17T13:46:41.312Z,1008.8
2023-05-17T13:47:57.444Z,1008.7
2023-05-17T13:49:13.575Z,1008.7
2023-05-17T13:50:29.712Z,1008.7
2023-05-17T13:51:45.871Z,1008.8
2023-05-17T13:53:02.000Z,1008.8
2023-05-17T13:54:18.131Z,1008.8
2023-05-17T13:55:34.271Z,1008.7
2023-05-17T13:56:50.387Z,1008.7
2023-05-17T13:58:06.533Z,1008.7
2023-05-17T13:59:22.668Z,1008.7
2023-05-17T14:00:38.800Z,1008.7
2023-05-17T14:03:11.081Z,1008.7
2023-05-17T14:04:27.227Z,1008.7
2023-05-17T14:05:43.349Z,1008.8
2023-05-17T14:06:59.494Z,1008.8
2023-05-17T14:08:15.624Z,1008.8
2023-05-17T14:09:31.746Z,1008.7
2023-05-17T14:10:47.911Z,1008.7
2023-05-17T14:12:04.035Z,1008.7
2023-05-17T14:13:20.167Z,1008.8
2023-05-17T14:14:36.308Z,1008.7
2023-05-17T14:15:52.431Z,1008.8
2023-05-17T14:17:08.642Z,1008.7
2023-05-17T14:18:23.881Z,1008.8
2023-05-17T14:19:40.073Z,1008.8
2023-05-17T14:20:55.285Z,1008.8
2023-05-17T14:22:11.406Z,1008.8
2023-05-17T14:23:27.540Z,1008.8
2023-05-17T14:24:43.680Z,1008.8
2023-05-17T14:25:59.810Z,1008.8
2023-05-17T14:27:15.954Z,1008.8
2023-05-17T14:28:32.095Z,1008.8
2023-05-17T14:29:48.226Z,1008.8
2023-05-17T14:31:04.351Z,1008.8
2023-05-17T14:32:20.486Z,1008.8
2023-05-17T14:33:36.649Z,1008.8
2023-05-17T14:34:52.766Z,1008.8
2023-05-17T14:36:08.909Z,1008.8
2023-05-17T14:37:25.045Z,1008.9
2023-05-17T14:38:41.166Z,1008.9
2023-05-17T14:39:57.314Z,1008.9
2023-05-17T14:41:13.459Z,1008.9
2023-05-17T14:42:29.600Z,1008.9
2023-05-17T14:43:45.726Z,1008.9
2023-05-17T14:45:01.849Z,1008.9
2023-05-17T14:46:18.002Z,1008.9
2023-05-17T14:47:34.129Z,1008.8
2023-05-17T14:48:50.282Z,1008.9
2023-05-17T14:50:06.397Z,1009
2023-05-17T14:51:22.532Z,1009
2023-05-17T14:52:38.745Z,1008.9
2023-05-17T14:53:53.985Z,1008.9
2023-05-17T14:55:09.184Z,1009
2023-05-17T14:56:25.336Z,1009
2023-05-17T14:57:41.465Z,1009
2023-05-17T14:58:57.612Z,1009
2023-05-17T15:00:13.735Z,1009
2023-05-17T15:01:29.866Z,1009.1
2023-05-17T15:02:46.022Z,1009
2023-05-17T15:04:02.146Z,1009
2023-05-17T15:05:18.289Z,1009
2023-05-17T15:06:34.408Z,1009
2023-05-17T15:07:50.550Z,1009.1
2023-05-17T15:09:06.706Z,1009.1
2023-05-17T15:10:22.837Z,1009
2023-05-17T15:11:38.955Z,1009
2023-05-17T15:12:55.092Z,1009
2023-05-17T15:14:11.237Z,1009
2023-05-17T15:15:27.389Z,1009
2023-05-17T15:16:43.516Z,1009
2023-05-17T15:17:59.637Z,1009.1
2023-05-17T15:19:15.780Z,1009.1
2023-05-17T15:20:31.913Z,1009.1
2023-05-17T15:21:48.064Z,1009.1
2023-05-17T15:23:04.187Z,1009.1
2023-05-17T15:24:20.319Z,1009.2
2023-05-17T15:25:36.460Z,1009.2
2023-05-17T15:26:52.656Z,1009.2
2023-05-17T15:28:07.891Z,1009.2
2023-05-17T15:29:23.088Z,1009.2
2023-05-17T15:30:39.240Z,1009.3
2023-05-17T15:31:55.370Z,1009.3
2023-05-17T15:33:11.506Z,1009.2
2023-05-17T15:34:27.637Z,1009.3
2023-05-17T15:35:43.783Z,1009.3
2023-05-17T15:36:59.909Z,1009.3
2023-05-17T15:38:16.053Z,1009.3
2023-05-17T15:39:32.197Z,1009.3
2023-05-17T15:40:48.327Z,1009.3
2023-05-17T15:42:04.468Z,1009.3
2023-05-17T15:43:20.597Z,1009.3
2023-05-17T15:44:36.739Z,1009.3
2023-05-17T15:45:52.882Z,1009.3
2023-05-17T15:47:09.002Z,1009.3
2023-05-17T15:48:25.000Z,1009.3
2023-05-17T15:49:41.274Z,1009.3
2023-05-17T15:50:57.422Z,1009.4
2023-05-17T15:52:13.545Z,1009.4
2023-05-17T15:53:29.688Z,1009.4
2023-05-17T15:54:45.817Z,1009.3
2023-05-17T15:56:01.956Z,1009.4
2023-05-17T15:57:18.093Z,1009.4
2023-05-17T15:58:34.237Z,1009.3
2023-05-17T15:59:50.366Z,1009.3
2023-05-17T16:01:06.550Z,1009.3
2023-05-17T16:02:21.790Z,1009.3
2023-05-17T16:03:37.996Z,1009.3
2023-05-17T16:04:53.203Z,1009.3